Flight Track Log - Related Links

Times and Time Zones

All times are in EDT time to prevent confusion due to time zone crossing. See the EGF2963 flight status page for this flight to view local times or setup timezone preferences in your user account.

Time Position Orientation Groundspeed Altitude Reporting Facility
EDT Latitude Longitude Course Direction KTS MPH feet Rate Location/Type
Thu 10:01:55 AM 41.8225 -91.6375 202° Southwest 235 270 4,300  Level Chicago Center
Thu 10:02:00 AM 41.6184 -91.8378 206° Southwest  Level FlightAware Approximate
Thu 10:02:57 AM 41.7606 -91.6792 207° Southwest 250 288 7,100  Level Chicago Center
Thu 10:03:00 AM 41.5301 -91.8820 204° Southwest  Level FlightAware Approximate
Thu 10:03:59 AM 41.6953 -91.7167 203° Southwest 254 292 10,000  Level Chicago Center
Thu 10:04:00 AM 41.4407 -91.9264 198° South  Level FlightAware Approximate
Thu 10:05:00 AM 41.3501 -91.9666 198° South  Level FlightAware Approximate
Thu 10:05:01 AM 41.6150 -91.7625 203° Southwest 264 304 12,000  Level Chicago Center
Thu 10:06:00 AM 41.2571 -92.0155 202° Southwest  Level FlightAware Approximate
Thu 10:06:03 AM 41.5408 -91.8058 204° Southwest 288 331 13,800  Level Chicago Center
Thu 10:07:00 AM 41.1641 -92.0643 202° Southwest  Level FlightAware Approximate
Thu 10:07:05 AM 41.4656 -91.8492 203° Southwest 295 339 15,500  Level Chicago Center
Thu 10:08:07 AM 41.3883 -91.8931 203° Southwest 302 348 16,700 1,306 Climbing Chicago Center
Thu 10:09:09 AM 41.3067 -91.9389 203° Southwest 317 365 18,200 1,355 Climbing Chicago Center
Thu 10:10:11 AM 41.2231 -91.9858 203° Southwest 316 364 19,500 1,403 Climbing Chicago Center
Thu 10:11:13 AM 41.1211 -92.0439 203° Southwest 331 381 21,100 1,258 Climbing Chicago Center
Thu 10:12:15 AM 41.0325 -92.0936 203° Southwest 343 395 22,100 1,016 Climbing Chicago Center
Thu 10:13:17 AM 40.9400 -92.1450 203° Southwest 359 413 23,200 1,016 Climbing Chicago Center
Thu 10:14:19 AM 40.8436 -92.1997 203° Southwest 374 430 24,200 1,016 Climbing Chicago Center
Thu 10:15:21 AM 40.7464 -92.2558 204° Southwest 381 438 25,300 1,113 Climbing Chicago Center
Thu 10:16:23 AM 40.6278 -92.3203 202° Southwest 386 444 26,500 1,065 Climbing Chicago Center
Thu 10:17:25 AM 40.5289 -92.3758 203° Southwest 389 448 27,500 726 Climbing Chicago Center
Thu 10:18:27 AM 40.4292 -92.4306 203° Southwest 388 447 28,000 252 Climbing Chicago Center
Thu 10:19:24 AM 40.3200 -92.4897 202° Southwest 401 461 28,000 305 Level Kansas City Center
Thu 10:20:25 AM 40.2175 -92.5478 203° Southwest 411 473 28,600 732 Climbing Kansas City Center
Thu 10:21:27 AM 40.1256 -92.6236 212° Southwest 411 473 29,500 927 Climbing Kansas City Center
Thu 10:22:28 AM 40.0600 -92.7564 237° Southwest 395 455 30,500 976 Climbing Kansas City Center
Thu 10:23:30 AM 40.0061 -92.8803 240° Southwest 394 453 31,500 919 Climbing Kansas City Center
Thu 10:24:32 AM 39.9514 -93.0025 240° Southwest 392 451 32,400 927 Climbing Kansas City Center
Thu 10:25:33 AM 39.8975 -93.1233 240° Southwest 390 449 33,400 927 Climbing Kansas City Center
Thu 10:26:35 AM 39.8425 -93.2436 239° Southwest 388 447 34,300 976 Climbing Kansas City Center
Thu 10:27:36 AM 39.7775 -93.3861 239° Southwest 385 443 35,400 829 Climbing Kansas City Center
Thu 10:28:38 AM 39.7247 -93.5053 240° Southwest 384 442 36,000 290 Climbing Kansas City Center
Thu 10:29:40 AM 39.6706 -93.6272 240° Southwest 390 449 36,000  Level Kansas City Center
Thu 10:30:41 AM 39.6011 -93.7278 228° Southwest 377 434 36,000  Level Kansas City Center
Thu 10:31:43 AM 39.4983 -93.8072 211° Southwest 383 441 36,000  Level Kansas City Center
Thu 10:32:45 AM 39.4128 -93.8781 213° Southwest 382 440 36,000  Level Kansas City Center
Thu 10:33:46 AM 39.3258 -93.9497 213° Southwest 385 443 36,000  Level Kansas City Center
Thu 10:34:48 AM 39.2247 -94.0347 213° Southwest 387 445 36,000  Level Kansas City Center
Thu 10:35:50 AM 39.1378 -94.1083 213° Southwest 389 448 36,000  Level Kansas City Center
Thu 10:36:51 AM 39.0389 -94.2014 216° Southwest 392 451 36,000  Level Kansas City Center
Thu 10:37:53 AM 38.9550 -94.2853 218° Southwest 396 456 36,000  Level Kansas City Center
Thu 10:38:55 AM 38.8569 -94.3819 218° Southwest 396 456 36,000  Level Kansas City Center
Thu 10:39:56 AM 38.7711 -94.4647 217° Southwest 400 460 36,000  Level Kansas City Center
Thu 10:40:58 AM 38.6856 -94.5486 217° Southwest 403 464 36,000  Level Kansas City Center
Thu 10:42:00 AM 38.5858 -94.6469 218° Southwest 403 464 36,000  Level Kansas City Center
Thu 10:43:02 AM 38.5000 -94.7278 216° Southwest 401 461 36,000  Level Kansas City Center
Thu 10:44:03 AM 38.4000 -94.8261 218° Southwest 404 465 36,000  Level Kansas City Center
Thu 10:45:05 AM 38.3128 -94.9089 217° Southwest 406 467 36,000  Level Kansas City Center
Thu 10:46:07 AM 38.2269 -94.9914 217° Southwest 405 466 36,000  Level Kansas City Center
Thu 10:47:08 AM 38.1267 -95.0897 218° Southwest 406 467 36,000  Level Kansas City Center
Thu 10:48:10 AM 38.0419 -95.1703 217° Southwest 399 459 36,000  Level Kansas City Center
Thu 10:49:12 AM 37.9425 -95.2639 217° Southwest 399 459 36,000  Level Kansas City Center
Thu 10:50:14 AM 37.8536 -95.3467 216° Southwest 395 455 36,000  Level Kansas City Center
Thu 10:51:16 AM 37.7669 -95.4289 217° Southwest 391 450 36,000  Level Kansas City Center
Thu 10:52:17 AM 37.6794 -95.5103 216° Southwest 391 450 36,000  Level Kansas City Center
Thu 10:53:19 AM 37.5919 -95.5908 216° Southwest 389 448 36,000  Level Kansas City Center
Thu 10:54:21 AM 37.5039 -95.6736 217° Southwest 393 452 36,000  Level Kansas City Center
Thu 10:55:23 AM 37.4175 -95.7542 217° Southwest 389 448 36,000  Level Kansas City Center
Thu 10:56:24 AM 37.3111 -95.8542 217° Southwest 395 455 36,000  Level Kansas City Center
Thu 10:57:26 AM 37.2239 -95.9342 216° Southwest 392 451 36,000  Level Kansas City Center
Thu 10:58:28 AM 37.1367 -96.0147 216° Southwest 390 449 36,000  Level Kansas City Center
Thu 10:59:30 AM 37.0497 -96.0942 216° Southwest 389 448 36,000  Level Kansas City Center
Thu 11:00:31 AM 36.9633 -96.1750 217° Southwest 388 447 36,000  Level Kansas City Center
Thu 11:01:33 AM 36.8758 -96.2539 216° Southwest 389 448 36,000  Level Kansas City Center
Thu 11:02:35 AM 36.7717 -96.3500 216° Southwest 388 447 36,000  Level Kansas City Center
Thu 11:03:37 AM 36.6831 -96.4289 216° Southwest 391 450 36,000  Level Kansas City Center
Thu 11:04:39 AM 36.5808 -96.4786 201° Southwest 398 458 36,000  Level Kansas City Center
Thu 11:05:41 AM 36.4778 -96.5239 199° South 395 455 36,000  Level Kansas City Center
Thu 11:06:43 AM 36.3744 -96.5725 201° Southwest 397 457 36,000  Level Kansas City Center
Thu 11:07:44 AM 36.2700 -96.6175 199° South 397 457 36,000  Level Kansas City Center
Thu 11:08:46 AM 36.1661 -96.6647 200° South 398 458 36,000  Level Kansas City Center
Thu 11:09:48 AM 36.0478 -96.7164 199° South 397 457 36,000  Level Kansas City Center
Thu 11:10:50 AM 35.9425 -96.7633 200° South 400 460 36,000  Level Kansas City Center
Thu 11:11:52 AM 35.8383 -96.8092 200° South 398 458 36,000  Level Kansas City Center
Thu 11:12:54 AM 35.7333 -96.8553 200° South 399 459 36,000  Level Kansas City Center
Thu 11:13:56 AM 35.6083 -96.9089 199° South 396 456 36,000  Level Kansas City Center
Thu 11:14:37 AM 35.5472 -96.9339 198° South 407 468 36,000  Level Fort Worth Center
Thu 11:15:37 AM 35.4306 -96.9856 200° South 407 468 36,000  Level Fort Worth Center
Thu 11:16:37 AM 35.3222 -97.0319 199° South 407 468 36,000  Level Fort Worth Center
Thu 11:17:37 AM 35.2161 -97.0781 200° South 407 468 36,000  Level Fort Worth Center
Thu 11:18:37 AM 35.1119 -97.1242 200° South 407 468 36,000 -200 Level Fort Worth Center
Thu 11:19:37 AM 35.0075 -97.1703 200° South 407 468 35,600 -500 Descending Fort Worth Center
Thu 11:20:37 AM 34.9097 -97.2108 199° South 402 463 35,000 -850 Descending Fort Worth Center
Thu 11:21:37 AM 34.8097 -97.2542 200° South 391 450 33,900 -1,550 Descending Fort Worth Center
Thu 11:22:37 AM 34.7117 -97.2972 200° South 386 444 31,900 -2,150 Descending Fort Worth Center
Thu 11:23:37 AM 34.6072 -97.3403 199° South 386 444 29,600 -2,250 Descending Fort Worth Center
Thu 11:24:37 AM 34.5031 -97.3833 199° South 396 456 27,400 -2,250 Descending Fort Worth Center
Thu 11:25:37 AM 34.3986 -97.4286 200° South 396 456 25,100 -1,800 Descending Fort Worth Center
Thu 11:26:37 AM 34.2922 -97.4664 196° South 402 463 23,800 -1,150 Descending Fort Worth Center
Thu 11:27:37 AM 34.1858 -97.4889 190° South 397 457 22,800 -950 Descending Fort Worth Center
Thu 11:28:37 AM 34.0711 -97.5064 187° South 405 466 21,900 -950 Descending Fort Worth Center
Thu 11:29:37 AM 33.9606 -97.5311 191° South 410 472 20,900 -1,150 Descending Fort Worth Center
Thu 11:30:37 AM 33.8497 -97.5536 190° South 410 472 19,600 -1,350 Descending Fort Worth Center
Thu 11:31:37 AM 33.7517 -97.5733 189° South 405 466 18,200 -1,450 Descending Fort Worth Center
Thu 11:32:37 AM 33.6472 -97.5931 189° South 392 451 16,700 -1,550 Descending Fort Worth Center
Thu 11:33:37 AM 33.5325 -97.6128 188° South 384 442 15,100 -1,650 Descending Fort Worth Center
Thu 11:34:37 AM 33.4406 -97.6300 189° South 384 442 13,400 -1,350 Descending Fort Worth Center
Thu 11:35:37 AM 33.3675 -97.6175 172° South 285 328 12,400 -1,550 Descending Fort Worth Center
Thu 11:36:37 AM 33.2989 -97.5403 137° Southeast 279 321 10,300 -1,950 Descending Fort Worth Center
Thu 11:37:37 AM 33.2508 -97.4806 134° Southeast 274 315 8,500 -1,950 Descending Fort Worth Center
Thu 11:38:37 AM 33.1944 -97.4086 133° Southeast 274 315 6,400 -1,950 Descending Fort Worth Center
Thu 11:39:37 AM 33.1444 -97.3464 134° Southeast 274 315 4,600 -1,200 Descending Fort Worth Center
Thu 11:40:37 AM 33.0900 -97.2744 132° Southeast 274 315 4,000 -400 Descending Fort Worth Center
Thu 11:41:37 AM 33.0419 -97.2225 138° Southeast 266 306 3,800 -200 Descending Fort Worth Center

Login

Don't have an account? Register now (free) for customized features, flight alerts, and more!